Time;durP1;ratioP1;P1;durP2;ratioP2;P2;SDS_P1;SDS_P2;PMS_P1;PMS_P2;Temp;Humidity;BMP_temperature;BMP_pressure;BME280_temperature;BME280_humidity;BME280_pressure;Samples;Min_cycle;Max_cycle;Signal;HPM_P1;HPM_P2
2021/12/19 00:02:46;;;;;;;8.03;6.47;;;7.00;99.90;;;;;;5093025;28;20243;-54
2021/12/19 00:11:37;;;;;;;8.10;5.67;;;7.00;99.90;;;;;;5071562;28;20245;-55
2021/12/19 00:14:06;;;;;;;6.90;5.93;;;7.00;99.90;;;;;;5073082;28;20261;-55
2021/12/19 00:16:34;;;;;;;9.20;5.83;;;7.00;99.90;;;;;;5073299;28;20250;-54
2021/12/19 00:19:04;;;;;;;6.97;5.97;;;7.00;99.90;;;;;;5072951;28;20253;-55
2021/12/19 00:21:35;;;;;;;6.00;5.33;;;7.00;99.90;;;;;;5072947;28;20914;-55
2021/12/19 00:24:04;;;;;;;6.47;5.43;;;6.90;99.90;;;;;;5073236;28;20263;-54
2021/12/19 00:26:32;;;;;;;6.63;5.33;;;7.00;99.90;;;;;;5087439;28;20235;-54
2021/12/19 00:29:01;;;;;;;7.30;5.83;;;7.00;99.90;;;;;;5093069;28;20799;-54
2021/12/19 00:31:29;;;;;;;7.23;5.07;;;7.00;99.90;;;;;;5093005;28;20297;-54
2021/12/19 00:33:57;;;;;;;7.13;5.37;;;7.00;99.90;;;;;;5093132;28;20645;-55
2021/12/19 00:36:26;;;;;;;8.10;5.60;;;7.00;99.90;;;;;;5093265;28;20211;-54
2021/12/19 00:38:56;;;;;;;7.67;5.60;;;7.00;99.90;;;;;;5092992;28;20296;-55
2021/12/19 00:41:25;;;;;;;9.83;5.53;;;7.00;99.90;;;;;;5092875;28;20240;-54
2021/12/19 00:43:55;;;;;;;6.30;5.13;;;7.00;99.90;;;;;;5092689;28;20222;-53
2021/12/19 00:46:26;;;;;;;5.30;4.73;;;7.00;99.90;;;;;;5092943;28;20302;-54
2021/12/19 00:48:56;;;;;;;9.07;7.07;;;7.00;99.90;;;;;;5092311;28;20266;-55
2021/12/19 00:51:30;;;;;;;9.67;7.33;;;7.00;99.90;;;;;;5087875;28;20205;-54
2021/12/19 00:53:59;;;;;;;8.13;6.17;;;7.00;99.90;;;;;;5086856;28;20310;-53
2021/12/19 00:56:28;;;;;;;6.17;5.27;;;7.00;99.90;;;;;;5091926;28;20203;-54
2021/12/19 00:58:56;;;;;;;5.43;4.40;;;7.00;99.90;;;;;;5087795;28;20212;-54
2021/12/19 01:01:24;;;;;;;6.13;4.63;;;7.00;99.90;;;;;;5091317;28;20232;-54
2021/12/19 01:03:53;;;;;;;5.47;4.50;;;7.00;99.90;;;;;;5092606;28;20255;-54
2021/12/19 01:06:21;;;;;;;5.23;4.40;;;7.00;99.90;;;;;;5092427;28;20295;-54
2021/12/19 01:08:49;;;;;;;5.83;4.17;;;7.00;99.90;;;;;;5092389;28;20269;-54
2021/12/19 01:11:19;;;;;;;5.50;4.80;;;7.00;99.90;;;;;;5092460;28;20297;-54
2021/12/19 01:13:47;;;;;;;5.47;4.27;;;7.10;99.90;;;;;;5091668;28;20310;-55
2021/12/19 01:16:16;;;;;;;5.10;4.37;;;7.00;99.90;;;;;;5091998;28;20687;-54
2021/12/19 01:18:44;;;;;;;5.37;4.60;;;7.00;99.90;;;;;;5092132;28;20239;-54
2021/12/19 01:21:12;;;;;;;6.00;4.70;;;6.90;99.90;;;;;;5091962;28;20714;-55
2021/12/19 01:23:40;;;;;;;6.57;4.73;;;6.90;99.90;;;;;;5072048;28;20256;-55
2021/12/19 01:26:08;;;;;;;4.70;4.07;;;6.90;99.90;;;;;;5071614;28;20259;-54
2021/12/19 01:28:38;;;;;;;7.07;4.10;;;7.00;99.90;;;;;;5082586;28;20317;-55
2021/12/19 01:31:06;;;;;;;6.00;4.10;;;7.00;99.90;;;;;;5071783;28;20231;-53
2021/12/19 01:33:34;;;;;;;5.57;4.07;;;6.90;99.90;;;;;;5071753;28;20256;-53
2021/12/19 01:36:03;;;;;;;6.53;4.43;;;6.90;99.90;;;;;;5071822;28;20291;-54
2021/12/19 01:38:31;;;;;;;4.20;3.80;;;7.00;99.90;;;;;;5091244;28;20234;-54
2021/12/19 01:41:00;;;;;;;5.40;4.60;;;7.00;99.90;;;;;;5091366;28;20297;-54
2021/12/19 01:43:28;;;;;;;6.17;4.80;;;7.00;99.90;;;;;;5091782;28;20257;-54
2021/12/19 01:45:57;;;;;;;5.97;4.57;;;7.00;99.90;;;;;;5091557;28;20652;-54
2021/12/19 01:48:26;;;;;;;7.37;4.17;;;7.00;99.90;;;;;;5091345;28;20739;-54
2021/12/19 01:50:55;;;;;;;4.80;4.30;;;7.00;99.90;;;;;;5083429;28;20234;-54
2021/12/19 01:53:23;;;;;;;5.93;4.10;;;7.00;99.90;;;;;;5088274;28;20749;-55
2021/12/19 01:55:53;;;;;;;4.33;3.93;;;7.00;99.90;;;;;;5085429;28;20684;-54
2021/12/19 01:58:22;;;;;;;5.70;4.40;;;7.00;99.90;;;;;;5071266;28;20727;-54
2021/12/19 02:00:52;;;;;;;5.13;4.30;;;7.00;99.90;;;;;;5071495;28;20235;-54
2021/12/19 02:03:22;;;;;;;5.17;4.20;;;6.90;99.90;;;;;;5079962;28;20223;-54
2021/12/19 02:05:51;;;;;;;6.30;4.03;;;6.90;99.90;;;;;;5091207;28;20208;-54
2021/12/19 02:08:19;;;;;;;7.00;4.60;;;6.90;99.90;;;;;;5092681;28;20263;-55
2021/12/19 02:10:49;;;;;;;5.23;4.43;;;6.90;99.90;;;;;;5100781;28;20236;-55
2021/12/19 02:13:17;;;;;;;6.23;4.20;;;6.90;99.90;;;;;;5097367;28;20265;-55
2021/12/19 02:15:47;;;;;;;8.97;4.77;;;6.90;99.90;;;;;;5091504;28;20247;-54
2021/12/19 02:18:16;;;;;;;5.97;4.77;;;6.90;99.90;;;;;;5091496;28;20238;-55
2021/12/19 02:20:50;;;;;;;4.90;4.23;;;7.00;99.90;;;;;;5091426;28;20315;-56
2021/12/19 02:23:19;;;;;;;6.17;4.33;;;6.80;99.90;;;;;;5073933;28;20292;-55
2021/12/19 02:25:47;;;;;;;7.47;4.60;;;6.80;99.90;;;;;;5071092;28;20249;-55
2021/12/19 02:28:15;;;;;;;6.57;4.53;;;6.80;99.90;;;;;;5087262;28;20314;-56
2021/12/19 02:30:44;;;;;;;10.03;5.10;;;6.80;99.90;;;;;;5095649;28;20227;-54
2021/12/19 02:33:17;;;;;;;6.20;4.30;;;6.70;99.90;;;;;;5094168;28;20274;-54
2021/12/19 02:35:54;;;;;;;5.50;4.40;;;6.70;99.90;;;;;;5095816;28;20294;-55
2021/12/19 02:39:14;;;;;;;5.83;4.27;;;6.70;99.90;;;;;;5095245;28;20719;-55
2021/12/19 02:49:43;;;;;;;4.40;4.00;;;6.60;99.90;;;;;;5094483;28;20318;-54
2021/12/19 02:52:18;;;;;;;5.87;4.17;;;6.70;99.90;;;;;;5094647;28;20259;-55
2021/12/19 02:54:47;;;;;;;6.87;4.70;;;6.70;99.90;;;;;;5094843;28;20232;-55
2021/12/19 02:57:15;;;;;;;5.73;3.90;;;6.70;99.90;;;;;;5094497;28;20243;-54
2021/12/19 02:59:48;;;;;;;6.67;3.90;;;6.70;99.90;;;;;;5085131;28;20231;-55
2021/12/19 03:02:18;;;;;;;6.97;4.03;;;6.60;99.90;;;;;;5073497;28;20251;-54
2021/12/19 03:04:56;;;;;;;5.97;4.50;;;6.60;99.90;;;;;;5078764;28;20239;-55
2021/12/19 03:07:26;;;;;;;4.30;3.73;;;6.70;99.90;;;;;;5094751;28;20580;-54
2021/12/19 03:10:07;;;;;;;5.23;4.00;;;6.70;99.90;;;;;;5094154;28;20216;-55
2021/12/19 03:12:49;;;;;;;6.07;3.90;;;6.70;99.90;;;;;;5094740;28;20315;-56
2021/12/19 03:18:06;;;;;;;5.10;4.00;;;6.70;99.90;;;;;;5094376;28;20235;-55
2021/12/19 03:20:35;;;;;;;4.40;3.93;;;6.70;99.90;;;;;;5094508;28;20259;-54
2021/12/19 03:23:06;;;;;;;4.77;4.00;;;6.70;99.90;;;;;;5077812;28;20285;-53
2021/12/19 03:25:35;;;;;;;5.13;3.90;;;6.70;99.90;;;;;;5073732;28;20738;-52
2021/12/19 03:28:05;;;;;;;6.60;4.33;;;6.70;99.90;;;;;;5087813;28;20231;-54
2021/12/19 03:30:34;;;;;;;4.27;3.50;;;6.70;99.90;;;;;;5093843;28;20627;-53
2021/12/19 03:33:03;;;;;;;6.17;3.40;;;6.70;99.90;;;;;;5097921;28;20254;-53
2021/12/19 03:35:32;;;;;;;4.50;3.57;;;6.70;99.90;;;;;;5112304;28;20203;-52
2021/12/19 03:38:02;;;;;;;5.77;3.73;;;6.80;99.90;;;;;;5114761;28;20313;-52
2021/12/19 03:40:36;;;;;;;5.37;4.10;;;6.80;99.90;;;;;;5114069;28;20225;-54
2021/12/19 03:43:06;;;;;;;5.40;4.00;;;6.70;99.90;;;;;;5114286;28;20223;-54
2021/12/19 03:45:36;;;;;;;4.27;3.80;;;6.60;99.90;;;;;;5088477;28;20246;-56
2021/12/19 03:48:05;;;;;;;5.23;3.63;;;6.60;99.90;;;;;;5093344;28;20665;-53
2021/12/19 03:50:33;;;;;;;5.80;4.30;;;6.60;99.90;;;;;;5088135;28;20270;-54
2021/12/19 03:53:02;;;;;;;5.10;3.83;;;6.70;99.90;;;;;;5082319;28;20256;-55
2021/12/19 03:55:33;;;;;;;4.70;3.90;;;6.70;99.90;;;;;;5093519;28;21008;-52
2021/12/19 03:58:02;;;;;;;5.43;3.90;;;6.70;99.90;;;;;;5094247;28;20212;-53
2021/12/19 04:00:31;;;;;;;4.57;4.03;;;6.70;99.90;;;;;;5093509;28;20233;-53
2021/12/19 04:03:04;;;;;;;5.03;3.70;;;6.80;99.90;;;;;;5093505;28;20224;-55
2021/12/19 04:05:34;;;;;;;5.83;4.27;;;6.70;99.90;;;;;;5082858;28;20229;-54
2021/12/19 04:08:02;;;;;;;5.33;4.13;;;6.70;99.90;;;;;;5073442;28;20689;-54
2021/12/19 04:10:31;;;;;;;5.10;4.30;;;6.70;99.90;;;;;;5079068;28;20309;-53
2021/12/19 04:13:00;;;;;;;7.60;4.27;;;6.70;99.90;;;;;;5093653;28;20256;-55
2021/12/19 04:15:29;;;;;;;6.20;4.80;;;6.70;99.90;;;;;;5093512;28;20201;-53
2021/12/19 04:17:57;;;;;;;5.27;4.40;;;6.70;99.90;;;;;;5093021;28;20287;-54
2021/12/19 04:20:25;;;;;;;5.20;4.50;;;6.70;99.90;;;;;;5093240;28;20208;-54
2021/12/19 04:22:54;;;;;;;6.60;4.57;;;6.70;99.90;;;;;;5093311;28;20311;-54
2021/12/19 04:25:22;;;;;;;5.60;4.50;;;6.70;99.90;;;;;;5092328;28;20239;-54
2021/12/19 04:27:52;;;;;;;6.23;4.37;;;6.70;99.90;;;;;;5091545;28;20715;-53
2021/12/19 04:30:22;;;;;;;7.47;5.00;;;6.60;99.90;;;;;;5093184;28;20285;-54
2021/12/19 04:32:59;;;;;;;6.73;5.40;;;6.70;99.90;;;;;;5093161;28;20257;-54
2021/12/19 04:35:31;;;;;;;6.07;4.47;;;6.70;99.90;;;;;;5092735;28;20283;-54
2021/12/19 04:40:51;;;;;;;6.03;4.30;;;6.70;99.90;;;;;;5063808;28;20244;-54
2021/12/19 04:54:47;;;;;;;6.73;4.60;;;6.70;99.90;;;;;;5071361;28;20229;-53
2021/12/19 04:57:28;;;;;;;5.97;4.50;;;6.60;99.90;;;;;;5087769;28;20239;-55
2021/12/19 05:00:02;;;;;;;5.77;4.30;;;6.70;99.90;;;;;;5080785;28;20641;-53
2021/12/19 05:02:45;;;;;;;4.63;4.10;;;6.70;99.90;;;;;;5071903;28;20261;-53
2021/12/19 05:05:41;;;;;;;5.47;4.07;;;6.70;99.90;;;;;;5072592;28;20250;-54
2021/12/19 05:16:24;;;;;;;13.93;9.37;;;6.60;99.90;;;;;;5092658;28;20213;-53
2021/12/19 05:19:00;;;;;;;13.80;8.80;;;6.50;99.90;;;;;;5092125;28;20302;-53
2021/12/19 05:21:29;;;;;;;74.20;42.60;;;6.60;99.90;;;;;;5091641;28;20253;-53
2021/12/19 05:24:21;;;;;;;46.77;26.53;;;6.60;99.90;;;;;;5092003;28;20253;-53
2021/12/19 05:26:49;;;;;;;33.17;17.93;;;6.60;99.90;;;;;;5074394;28;20216;-51
2021/12/19 05:29:18;;;;;;;27.37;15.83;;;6.60;99.90;;;;;;5091985;28;20302;-54
2021/12/19 05:31:47;;;;;;;10.03;6.77;;;6.60;99.90;;;;;;5092131;28;20647;-54
2021/12/19 05:34:15;;;;;;;7.07;5.57;;;6.60;99.90;;;;;;5091662;28;20258;-53
2021/12/19 05:45:13;;;;;;;5.83;5.07;;;6.60;99.90;;;;;;5091237;28;20238;-53
2021/12/19 05:47:43;;;;;;;5.50;4.43;;;6.50;99.90;;;;;;5091865;28;20233;-54
2021/12/19 05:50:11;;;;;;;8.30;4.87;;;6.50;99.90;;;;;;5091057;28;20220;-52
2021/12/19 05:52:40;;;;;;;7.00;4.80;;;6.50;99.90;;;;;;5091371;28;20636;-52
2021/12/19 05:55:09;;;;;;;8.37;4.70;;;6.50;99.90;;;;;;5090968;28;20710;-54
2021/12/19 05:57:37;;;;;;;6.10;4.80;;;6.50;99.90;;;;;;5091860;28;20266;-53
2021/12/19 06:00:08;;;;;;;6.10;4.30;;;6.50;99.90;;;;;;5091526;28;20287;-53
2021/12/19 06:02:36;;;;;;;5.53;4.10;;;6.40;99.90;;;;;;5087471;28;20347;-54
2021/12/19 06:05:07;;;;;;;6.73;4.30;;;6.30;99.90;;;;;;5071545;28;20952;-54
2021/12/19 06:07:35;;;;;;;6.03;4.70;;;6.20;99.90;;;;;;5071368;28;20252;-54
2021/12/19 06:10:05;;;;;;;6.53;5.03;;;6.10;99.90;;;;;;5071208;28;20257;-55
2021/12/19 06:12:34;;;;;;;5.97;4.23;;;6.00;99.90;;;;;;5074601;28;20221;-55
2021/12/19 06:15:02;;;;;;;6.50;4.63;;;5.90;99.90;;;;;;5073951;28;20652;-54
2021/12/19 06:17:30;;;;;;;6.30;4.33;;;5.80;99.90;;;;;;5069854;28;20242;-53
2021/12/19 06:19:58;;;;;;;8.57;5.30;;;5.70;99.90;;;;;;5088306;28;20653;-54
2021/12/19 06:22:27;;;;;;;7.27;5.03;;;5.60;99.90;;;;;;5070149;28;20245;-54
2021/12/19 06:24:55;;;;;;;8.70;4.83;;;5.60;99.90;;;;;;5070408;28;20238;-53
2021/12/19 06:27:23;;;;;;;5.57;4.80;;;5.50;99.90;;;;;;5071242;28;20241;-54
2021/12/19 06:29:52;;;;;;;7.77;5.20;;;5.50;99.90;;;;;;5073738;28;20884;-53
2021/12/19 06:32:20;;;;;;;8.90;5.80;;;5.40;99.90;;;;;;5070890;28;20645;-54
2021/12/19 06:34:48;;;;;;;9.60;6.50;;;5.40;99.90;;;;;;5073285;28;20292;-54
2021/12/19 06:37:16;;;;;;;9.60;5.67;;;5.30;99.90;;;;;;5076004;28;20626;-55
2021/12/19 06:39:46;;;;;;;9.83;5.93;;;5.20;99.90;;;;;;5070373;28;20240;-55
2021/12/19 06:42:15;;;;;;;8.10;5.67;;;5.20;99.90;;;;;;5071049;28;20236;-54
2021/12/19 06:44:46;;;;;;;8.60;6.20;;;5.10;99.90;;;;;;5078629;28;20293;-52
2021/12/19 06:47:14;;;;;;;8.03;5.90;;;5.00;99.90;;;;;;5069870;28;20827;-54
2021/12/19 06:49:42;;;;;;;8.57;6.57;;;5.00;99.90;;;;;;5074856;28;20199;-53
2021/12/19 06:52:10;;;;;;;9.53;6.57;;;5.00;99.90;;;;;;5069701;28;20663;-53
2021/12/19 06:54:39;;;;;;;7.87;6.20;;;4.90;99.90;;;;;;5071360;28;20662;-53
2021/12/19 06:57:08;;;;;;;9.13;6.53;;;4.90;99.90;;;;;;5070257;28;20232;-54
2021/12/19 06:59:36;;;;;;;8.77;6.20;;;4.90;99.90;;;;;;5075508;28;20301;-53
2021/12/19 07:02:05;;;;;;;11.67;7.33;;;5.00;99.90;;;;;;5072650;28;20288;-53
2021/12/19 07:04:33;;;;;;;11.27;7.53;;;5.10;99.90;;;;;;5072292;28;20654;-54
2021/12/19 07:07:01;;;;;;;10.33;6.63;;;5.10;99.90;;;;;;5073101;28;20636;-54
2021/12/19 07:09:29;;;;;;;11.27;7.20;;;5.20;99.90;;;;;;5070150;28;20237;-53
2021/12/19 07:11:58;;;;;;;7.70;5.90;;;5.20;99.90;;;;;;5069638;28;20235;-55
2021/12/19 07:14:27;;;;;;;9.13;6.43;;;5.20;99.90;;;;;;5072786;28;20229;-53
2021/12/19 07:16:55;;;;;;;11.07;6.80;;;5.20;99.90;;;;;;5077170;28;20847;-54
2021/12/19 07:19:23;;;;;;;13.70;6.50;;;5.20;99.90;;;;;;5077055;28;20689;-53
2021/12/19 07:21:52;;;;;;;11.67;7.53;;;5.20;99.90;;;;;;5085598;28;20286;-54
2021/12/19 07:24:20;;;;;;;11.23;6.90;;;5.20;99.90;;;;;;5092913;28;20230;-53
2021/12/19 07:26:48;;;;;;;10.03;6.90;;;5.30;99.90;;;;;;5090179;28;20294;-54
2021/12/19 07:29:16;;;;;;;11.23;7.23;;;5.30;99.90;;;;;;5090109;28;20668;-53
2021/12/19 07:31:46;;;;;;;11.40;7.70;;;5.20;99.90;;;;;;5089731;28;20254;-53
2021/12/19 07:34:14;;;;;;;10.33;6.80;;;5.20;99.90;;;;;;5093461;28;20262;-54
2021/12/19 07:36:49;;;;;;;11.37;6.97;;;5.20;99.90;;;;;;5092285;28;20239;-54
2021/12/19 07:39:25;;;;;;;9.97;6.70;;;5.30;99.90;;;;;;5088365;28;20247;-54
2021/12/19 07:41:53;;;;;;;13.63;7.30;;;5.30;99.90;;;;;;5093798;28;20625;-53
2021/12/19 07:44:21;;;;;;;9.67;7.03;;;5.30;99.90;;;;;;5093954;28;20240;-52
2021/12/19 07:46:51;;;;;;;16.30;10.07;;;5.30;99.90;;;;;;5093771;28;20303;-53
2021/12/19 07:49:19;;;;;;;15.07;9.80;;;5.30;99.90;;;;;;5093477;28;20251;-53
2021/12/19 07:51:47;;;;;;;14.93;10.33;;;5.20;99.90;;;;;;5093439;28;20318;-53
2021/12/19 07:54:15;;;;;;;15.43;10.17;;;5.20;99.90;;;;;;5093386;28;20259;-55
2021/12/19 07:56:43;;;;;;;14.97;10.20;;;5.30;99.90;;;;;;5093893;28;20287;-54
2021/12/19 07:59:12;;;;;;;15.50;10.13;;;5.30;99.90;;;;;;5087668;28;20292;-53
2021/12/19 08:01:40;;;;;;;19.47;9.77;;;5.30;99.90;;;;;;5073332;28;20236;-55
2021/12/19 08:04:10;;;;;;;75.60;12.17;;;5.30;99.90;;;;;;5072910;28;20258;-52
2021/12/19 08:06:38;;;;;;;199.97;15.30;;;5.20;99.90;;;;;;5076442;28;20201;-54
2021/12/19 08:09:09;;;;;;;150.87;14.40;;;5.20;99.90;;;;;;5093526;28;20200;-54
2021/12/19 08:11:40;;;;;;;304.30;18.13;;;5.20;99.90;;;;;;5092736;28;20762;-55
2021/12/19 08:14:10;;;;;;;187.97;16.27;;;5.20;99.90;;;;;;5092823;28;20652;-54
2021/12/19 08:16:38;;;;;;;214.33;15.47;;;5.20;99.90;;;;;;5093670;28;20250;-53
2021/12/19 08:19:07;;;;;;;264.83;17.30;;;5.30;99.90;;;;;;5091628;28;20254;-55
2021/12/19 08:21:36;;;;;;;211.20;15.10;;;5.30;99.90;;;;;;5088597;28;20262;-53
2021/12/19 08:24:10;;;;;;;202.07;16.53;;;5.30;99.90;;;;;;5082644;28;20257;-53
2021/12/19 08:26:40;;;;;;;264.60;17.03;;;5.30;99.90;;;;;;5078203;28;20251;-52
2021/12/19 08:29:11;;;;;;;148.50;14.47;;;5.30;99.90;;;;;;5088394;28;20640;-53
2021/12/19 08:31:40;;;;;;;120.17;14.37;;;5.40;99.90;;;;;;5085889;28;20220;-52
2021/12/19 08:34:09;;;;;;;181.63;16.27;;;5.40;99.90;;;;;;5091838;28;20224;-54
2021/12/19 08:36:38;;;;;;;142.40;14.13;;;5.40;99.90;;;;;;5084925;28;20212;-53
2021/12/19 08:39:08;;;;;;;238.43;16.97;;;5.40;99.90;;;;;;5088610;28;20994;-53
2021/12/19 08:41:39;;;;;;;216.87;16.00;;;5.30;99.90;;;;;;5088900;28;20200;-53
2021/12/19 08:44:07;;;;;;;116.63;13.83;;;5.30;99.90;;;;;;5090497;28;20256;-54
2021/12/19 08:46:37;;;;;;;208.23;16.27;;;5.30;99.90;;;;;;5090114;28;20240;-53
2021/12/19 08:49:06;;;;;;;149.43;15.93;;;5.30;99.90;;;;;;5092188;28;20267;-54
2021/12/19 08:51:34;;;;;;;280.10;19.70;;;5.40;99.90;;;;;;5085503;28;20304;-54
2021/12/19 08:54:04;;;;;;;258.97;16.93;;;5.30;99.90;;;;;;5090540;28;20306;-53
2021/12/19 08:56:32;;;;;;;144.33;13.73;;;5.30;99.90;;;;;;5091801;28;20243;-54
2021/12/19 08:59:01;;;;;;;132.33;14.63;;;5.40;99.90;;;;;;5086490;28;20236;-53
2021/12/19 09:01:31;;;;;;;179.83;15.17;;;5.40;99.90;;;;;;5086573;28;20239;-54
2021/12/19 09:03:59;;;;;;;164.57;20.53;;;5.40;99.90;;;;;;5081218;28;20224;-54
2021/12/19 09:06:28;;;;;;;109.90;21.23;;;5.40;99.90;;;;;;5091794;28;20216;-54
2021/12/19 09:08:56;;;;;;;143.97;23.13;;;5.30;99.90;;;;;;5085421;28;20237;-55
2021/12/19 09:11:26;;;;;;;180.83;20.77;;;5.40;99.90;;;;;;5089297;28;20665;-53
2021/12/19 09:13:54;;;;;;;181.23;27.70;;;5.30;99.90;;;;;;5091822;28;20273;-52
2021/12/19 09:16:22;;;;;;;207.00;29.47;;;5.40;99.90;;;;;;5091634;28;20210;-53
2021/12/19 09:19:10;;;;;;;136.00;24.30;;;5.40;99.90;;;;;;5091670;28;20208;-53
2021/12/19 09:21:38;;;;;;;240.83;30.73;;;5.40;99.90;;;;;;5090711;28;20658;-54
2021/12/19 09:24:08;;;;;;;125.23;23.77;;;5.40;99.90;;;;;;5091457;28;20260;-53
2021/12/19 09:26:39;;;;;;;136.03;24.37;;;5.40;99.90;;;;;;5091571;28;20205;-54
2021/12/19 09:29:08;;;;;;;193.20;24.67;;;5.50;99.90;;;;;;5089427;28;20692;-54
2021/12/19 09:31:37;;;;;;;234.20;25.70;;;5.50;99.90;;;;;;5091467;28;20212;-54
2021/12/19 09:34:06;;;;;;;134.20;23.40;;;5.60;99.90;;;;;;5090806;28;20256;-53
2021/12/19 09:36:34;;;;;;;212.37;29.63;;;5.60;99.90;;;;;;5081997;28;20251;-53
2021/12/19 09:39:03;;;;;;;103.23;21.40;;;5.50;99.90;;;;;;5089381;28;20666;-54
2021/12/19 09:41:34;;;;;;;102.77;27.33;;;5.50;99.90;;;;;;5089196;28;20922;-53
2021/12/19 09:44:09;;;;;;;206.67;27.90;;;5.60;99.90;;;;;;5089758;28;20321;-54
2021/12/19 09:46:39;;;;;;;153.53;24.07;;;5.50;99.90;;;;;;5089730;28;20220;-54
2021/12/19 09:49:08;;;;;;;96.13;18.27;;;5.50;99.90;;;;;;5088884;28;20216;-54
2021/12/19 09:51:37;;;;;;;87.60;14.50;;;5.40;99.90;;;;;;5091034;28;20252;-54
2021/12/19 09:54:05;;;;;;;240.47;21.57;;;5.40;99.90;;;;;;5071840;28;20348;-55
2021/12/19 09:56:34;;;;;;;120.77;18.53;;;5.50;99.90;;;;;;5073133;28;20739;-53
2021/12/19 09:59:09;;;;;;;101.77;16.83;;;5.40;99.90;;;;;;5089516;28;20706;-56
2021/12/19 10:01:37;;;;;;;79.17;13.80;;;5.50;99.90;;;;;;5089558;28;20208;-54
2021/12/19 10:04:06;;;;;;;55.97;16.97;;;5.50;99.90;;;;;;5088363;28;20297;-54
2021/12/19 10:06:34;;;;;;;135.47;16.03;;;5.60;99.90;;;;;;5089809;28;20676;-54
2021/12/19 10:09:11;;;;;;;138.07;14.87;;;5.60;99.90;;;;;;5090634;28;20209;-54
2021/12/19 10:11:58;;;;;;;265.23;18.93;;;5.70;99.90;;;;;;5091198;28;20236;-53
2021/12/19 10:14:30;;;;;;;61.47;9.17;;;5.60;99.90;;;;;;5090443;28;20261;-54
2021/12/19 10:17:00;;;;;;;95.27;9.00;;;5.60;99.90;;;;;;5090833;28;20240;-54
2021/12/19 10:19:44;;;;;;;186.10;13.57;;;5.70;99.90;;;;;;5089160;28;20216;-54
2021/12/19 10:22:27;;;;;;;125.97;10.80;;;5.70;99.90;;;;;;5090435;28;20699;-53
2021/12/19 10:24:57;;;;;;;168.23;11.83;;;5.70;99.90;;;;;;5088872;28;20235;-54
2021/12/19 10:27:34;;;;;;;158.07;16.90;;;5.60;99.90;;;;;;5083688;28;20711;-54
2021/12/19 10:30:09;;;;;;;98.40;17.37;;;5.70;99.90;;;;;;5089406;28;20239;-55
2021/12/19 10:32:52;;;;;;;67.27;14.40;;;5.60;99.90;;;;;;5084178;28;20253;-54
2021/12/19 10:35:24;;;;;;;72.00;13.87;;;5.70;99.90;;;;;;5075949;28;20627;-55
2021/12/19 10:37:55;;;;;;;39.37;9.67;;;5.60;99.90;;;;;;5085136;28;20210;-54
2021/12/19 10:40:37;;;;;;;23.10;5.90;;;5.70;99.90;;;;;;5089241;28;20221;-54
2021/12/19 10:43:07;;;;;;;14.07;5.60;;;5.70;99.90;;;;;;5089875;28;20736;-54
2021/12/19 10:45:46;;;;;;;15.70;7.27;;;5.60;99.90;;;;;;5079984;28;20217;-53
2021/12/19 10:48:25;;;;;;;54.33;7.77;;;5.70;99.90;;;;;;5090382;28;20238;-53
2021/12/19 10:51:00;;;;;;;65.27;7.37;;;5.80;99.90;;;;;;5091221;28;20204;-54
2021/12/19 10:53:32;;;;;;;116.23;13.73;;;5.80;99.90;;;;;;5090404;28;20230;-55
2021/12/19 10:56:02;;;;;;;24.30;6.47;;;5.80;99.90;;;;;;5090748;28;20248;-53
2021/12/19 10:58:37;;;;;;;20.73;5.60;;;5.90;99.90;;;;;;5094340;28;20744;-53
2021/12/19 11:01:12;;;;;;;9.30;5.57;;;5.80;99.90;;;;;;5091745;28;20204;-55
2021/12/19 11:03:44;;;;;;;19.40;6.00;;;5.90;99.90;;;;;;5092751;28;20252;-54
2021/12/19 11:06:38;;;;;;;16.80;5.80;;;5.90;99.90;;;;;;5093609;28;20209;-54
2021/12/19 11:09:09;;;;;;;6.73;5.00;;;5.80;99.90;;;;;;5076510;28;20297;-54
2021/12/19 11:11:43;;;;;;;6.60;5.43;;;5.80;99.90;;;;;;5094149;28;20239;-53
2021/12/19 11:14:14;;;;;;;7.70;5.83;;;5.80;99.90;;;;;;5085409;28;20312;-54
2021/12/19 11:16:44;;;;;;;6.23;5.40;;;5.90;99.90;;;;;;5094038;28;20737;-53
2021/12/19 11:19:12;;;;;;;6.97;5.00;;;6.00;99.90;;;;;;5086037;28;20744;-53
2021/12/19 11:21:42;;;;;;;6.87;4.63;;;6.10;99.90;;;;;;5091879;28;20204;-54
2021/12/19 11:24:11;;;;;;;6.57;5.10;;;6.20;99.90;;;;;;5093887;28;20775;-54
2021/12/19 11:26:41;;;;;;;7.13;5.00;;;6.10;99.90;;;;;;5094044;28;20214;-53
2021/12/19 11:29:11;;;;;;;7.73;4.93;;;6.10;99.90;;;;;;5089767;28;20222;-54
2021/12/19 11:31:45;;;;;;;7.20;5.30;;;6.20;99.90;;;;;;5094223;28;20235;-54
2021/12/19 11:34:24;;;;;;;7.70;5.10;;;6.20;99.90;;;;;;5087694;28;20697;-53
2021/12/19 11:37:00;;;;;;;7.13;5.23;;;6.20;99.90;;;;;;5091926;28;20215;-54
2021/12/19 11:39:31;;;;;;;6.37;5.47;;;6.30;99.90;;;;;;5092991;28;20235;-54
2021/12/19 11:42:12;;;;;;;6.57;5.07;;;6.30;99.90;;;;;;5093125;28;20210;-54
2021/12/19 11:44:48;;;;;;;6.27;4.80;;;6.40;99.90;;;;;;5093708;28;20243;-55
2021/12/19 11:47:37;;;;;;;7.57;5.30;;;6.40;99.90;;;;;;5090032;28;20332;-53
2021/12/19 11:50:22;;;;;;;7.57;5.00;;;6.50;99.90;;;;;;5073948;28;20594;-54
2021/12/19 11:52:52;;;;;;;6.60;4.83;;;6.50;99.90;;;;;;5074277;28;20254;-55
2021/12/19 11:55:33;;;;;;;7.80;5.77;;;6.50;99.90;;;;;;5075956;28;20256;-54
2021/12/19 11:58:29;;;;;;;6.37;4.90;;;6.60;99.90;;;;;;5085187;28;20294;-54
2021/12/19 12:01:00;;;;;;;8.17;5.63;;;6.60;99.90;;;;;;5063187;28;20285;-54
2021/12/19 12:03:35;;;;;;;5.57;4.63;;;6.60;99.90;;;;;;5074725;28;20259;-54
2021/12/19 12:06:28;;;;;;;6.33;5.20;;;6.70;99.90;;;;;;5073206;28;20232;-54
2021/12/19 12:09:23;;;;;;;8.37;6.60;;;6.70;99.90;;;;;;5088768;28;20226;-54
2021/12/19 12:12:20;;;;;;;9.37;6.97;;;6.70;99.90;;;;;;5093483;28;20242;-53
2021/12/19 12:14:59;;;;;;;7.97;6.13;;;6.80;99.90;;;;;;5074742;28;20259;-53
2021/12/19 12:17:36;;;;;;;8.27;7.07;;;6.80;99.90;;;;;;5073232;28;20295;-54
2021/12/19 12:20:14;;;;;;;8.00;5.93;;;6.90;99.90;;;;;;5073261;28;20209;-53
2021/12/19 12:22:54;;;;;;;8.23;6.10;;;7.00;99.90;;;;;;5074836;28;20633;-54
2021/12/19 12:25:32;;;;;;;8.97;6.10;;;7.00;99.90;;;;;;5093360;28;20617;-53
2021/12/19 12:28:06;;;;;;;7.83;6.00;;;7.10;99.90;;;;;;5089132;28;20601;-54
2021/12/19 12:30:38;;;;;;;7.30;5.87;;;7.20;99.90;;;;;;5093210;28;20219;-53
2021/12/19 12:33:08;;;;;;;4.53;3.70;;;7.30;99.90;;;;;;5090674;28;20263;-54
2021/12/19 12:35:40;;;;;;;9.43;7.17;;;7.40;99.90;;;;;;5092929;28;20883;-54
2021/12/19 12:38:11;;;;;;;9.57;8.67;;;7.50;99.90;;;;;;5077899;28;20289;-53
2021/12/19 12:40:49;;;;;;;8.27;7.47;;;7.50;99.90;;;;;;5083939;28;20204;-54
2021/12/19 12:43:18;;;;;;;12.30;9.63;;;7.50;99.90;;;;;;5085236;28;20225;-53
2021/12/19 12:45:54;;;;;;;27.60;17.13;;;7.50;99.90;;;;;;5091888;28;20220;-55
2021/12/19 12:48:37;;;;;;;14.10;9.30;;;7.50;99.90;;;;;;5092660;28;20638;-54
2021/12/19 12:51:08;;;;;;;13.73;9.70;;;7.40;99.90;;;;;;5091810;28;20286;-54
2021/12/19 12:53:40;;;;;;;16.27;11.50;;;7.30;99.90;;;;;;5092587;28;20259;-58
2021/12/19 12:56:12;;;;;;;6.23;4.57;;;7.30;99.90;;;;;;5081605;28;20233;-54
2021/12/19 12:58:46;;;;;;;2.80;2.60;;;7.30;99.90;;;;;;5072281;28;20295;-53
2021/12/19 13:01:22;;;;;;;3.20;2.90;;;7.20;99.90;;;;;;5084459;28;20227;-55
2021/12/19 13:04:00;;;;;;;5.13;4.50;;;7.20;99.90;;;;;;5092786;28;20326;-53
2021/12/19 13:06:39;;;;;;;3.60;3.30;;;7.20;99.90;;;;;;5091562;28;20215;-54
2021/12/19 13:09:18;;;;;;;4.87;4.37;;;7.10;99.90;;;;;;5092501;28;20285;-55
2021/12/19 13:11:49;;;;;;;4.47;3.80;;;7.10;99.90;;;;;;5076279;28;20291;-54
2021/12/19 13:14:22;;;;;;;2.87;2.60;;;7.20;99.90;;;;;;5081187;28;20325;-54
2021/12/19 13:16:52;;;;;;;2.90;2.60;;;7.30;99.90;;;;;;5076637;28;20250;-55
2021/12/19 13:19:45;;;;;;;3.83;3.20;;;7.30;99.90;;;;;;5071939;28;20692;-55
2021/12/19 13:22:16;;;;;;;3.00;2.70;;;7.40;99.90;;;;;;5089610;28;20228;-53
2021/12/19 13:24:46;;;;;;;2.63;2.30;;;7.40;99.90;;;;;;5092109;28;20243;-53
2021/12/19 13:27:17;;;;;;;5.23;3.50;;;7.40;99.90;;;;;;5080293;28;20234;-55
2021/12/19 13:30:07;;;;;;;2.63;2.40;;;7.40;99.90;;;;;;5085978;28;20677;-53
2021/12/19 13:32:38;;;;;;;5.03;3.73;;;7.40;99.90;;;;;;5089173;28;20260;-53
2021/12/19 13:35:09;;;;;;;3.57;3.23;;;7.50;99.90;;;;;;5082474;28;20228;-54
2021/12/19 13:37:50;;;;;;;6.43;3.70;;;7.50;99.90;;;;;;5077687;28;20669;-53
2021/12/19 13:40:21;;;;;;;6.80;4.20;;;7.50;99.90;;;;;;5071987;28;20228;-53
2021/12/19 13:42:53;;;;;;;9.40;6.40;;;7.60;99.90;;;;;;5071264;28;20290;-55
2021/12/19 13:45:26;;;;;;;8.27;5.23;;;7.70;99.90;;;;;;5086118;28;20246;-54
2021/12/19 13:47:56;;;;;;;2.53;2.33;;;7.80;99.90;;;;;;5090230;28;20584;-54
2021/12/19 13:50:24;;;;;;;6.57;3.30;;;7.80;99.90;;;;;;5082070;28;20209;-54
2021/12/19 13:52:54;;;;;;;15.30;8.70;;;7.80;99.90;;;;;;5079241;28;20224;-54
2021/12/19 13:55:23;;;;;;;14.90;7.97;;;7.80;99.90;;;;;;5090756;28;20216;-55
2021/12/19 13:58:06;;;;;;;3.17;2.30;;;7.80;99.90;;;;;;5091619;28;20244;-54
2021/12/19 14:00:37;;;;;;;4.40;2.97;;;7.90;99.90;;;;;;5083715;28;20225;-53
2021/12/19 14:03:05;;;;;;;2.60;2.40;;;7.90;99.90;;;;;;5091363;28;20596;-54